sensor_id;sensor_type;location;lat;lon;timestamp;temperature;humidity
1135;DHT22;556;53.550;10.048;2022-10-28T00:01:58;18.60;56.90
1135;DHT22;556;53.550;10.048;2022-10-28T00:04:25;18.50;57.20
1135;DHT22;556;53.550;10.048;2022-10-28T00:06:53;18.50;56.70
1135;DHT22;556;53.550;10.048;2022-10-28T00:09:20;18.50;56.80
1135;DHT22;556;53.550;10.048;2022-10-28T00:11:47;18.50;56.80
1135;DHT22;556;53.550;10.048;2022-10-28T00:14:15;18.50;56.80
1135;DHT22;556;53.550;10.048;2022-10-28T00:16:42;18.40;57.20
1135;DHT22;556;53.550;10.048;2022-10-28T00:19:10;18.40;56.80
1135;DHT22;556;53.550;10.048;2022-10-28T00:21:39;18.40;56.80
1135;DHT22;556;53.550;10.048;2022-10-28T00:24:09;18.40;57.30
1135;DHT22;556;53.550;10.048;2022-10-28T00:26:38;18.40;56.80
1135;DHT22;556;53.550;10.048;2022-10-28T00:29:09;18.40;56.80
1135;DHT22;556;53.550;10.048;2022-10-28T00:31:37;18.30;56.80
1135;DHT22;556;53.550;10.048;2022-10-28T00:34:08;18.20;56.80
1135;DHT22;556;53.550;10.048;2022-10-28T00:36:37;18.20;56.80
1135;DHT22;556;53.550;10.048;2022-10-28T00:39:10;18.20;56.90
1135;DHT22;556;53.550;10.048;2022-10-28T00:41:40;18.20;57.40
1135;DHT22;556;53.550;10.048;2022-10-28T00:50:38;18.00;56.80
1135;DHT22;556;53.550;10.048;2022-10-28T00:53:09;18.00;57.40
1135;DHT22;556;53.550;10.048;2022-10-28T00:55:38;18.00;57.40
1135;DHT22;556;53.550;10.048;2022-10-28T00:58:06;17.90;56.90
1135;DHT22;556;53.550;10.048;2022-10-28T01:00:34;17.80;57.40
1135;DHT22;556;53.550;10.048;2022-10-28T01:03:02;17.80;57.00
1135;DHT22;556;53.550;10.048;2022-10-28T01:05:31;17.80;57.00
1135;DHT22;556;53.550;10.048;2022-10-28T01:08:01;17.80;57.10
1135;DHT22;556;53.550;10.048;2022-10-28T01:10:41;17.80;57.60
1135;DHT22;556;53.550;10.048;2022-10-28T01:13:14;17.90;57.20
1135;DHT22;556;53.550;10.048;2022-10-28T01:15:50;17.90;57.60
1135;DHT22;556;53.550;10.048;2022-10-28T01:18:24;18.00;58.10
1135;DHT22;556;53.550;10.048;2022-10-28T01:24:14;18.10;57.10
1135;DHT22;556;53.550;10.048;2022-10-28T01:27:02;18.10;57.50
1135;DHT22;556;53.550;10.048;2022-10-28T01:29:53;18.30;57.10
1135;DHT22;556;53.550;10.048;2022-10-28T01:32:30;18.30;57.10
1135;DHT22;556;53.550;10.048;2022-10-28T01:35:07;18.30;57.00
1135;DHT22;556;53.550;10.048;2022-10-28T01:37:46;18.30;57.00
1135;DHT22;556;53.550;10.048;2022-10-28T01:40:19;18.20;57.00
1135;DHT22;556;53.550;10.048;2022-10-28T01:42:54;18.20;57.10
1135;DHT22;556;53.550;10.048;2022-10-28T01:45:27;18.10;57.10
1135;DHT22;556;53.550;10.048;2022-10-28T01:48:00;18.00;57.10
1135;DHT22;556;53.550;10.048;2022-10-28T01:50:30;18.00;57.20
1135;DHT22;556;53.550;10.048;2022-10-28T01:53:02;18.00;57.20
1135;DHT22;556;53.550;10.048;2022-10-28T01:55:34;18.00;57.20
1135;DHT22;556;53.550;10.048;2022-10-28T01:58:03;18.00;57.10
1135;DHT22;556;53.550;10.048;2022-10-28T02:00:32;18.10;57.20
1135;DHT22;556;53.550;10.048;2022-10-28T02:03:01;18.10;57.60
1135;DHT22;556;53.550;10.048;2022-10-28T02:05:40;18.00;57.10
1135;DHT22;556;53.550;10.048;2022-10-28T02:11:30;18.00;57.40
1135;DHT22;556;53.550;10.048;2022-10-28T02:14:06;18.00;57.30
1135;DHT22;556;53.550;10.048;2022-10-28T02:16:42;18.10;57.40
1135;DHT22;556;53.550;10.048;2022-10-28T02:19:23;18.10;57.30
1135;DHT22;556;53.550;10.048;2022-10-28T02:21:59;18.10;57.70
1135;DHT22;556;53.550;10.048;2022-10-28T02:27:08;18.30;57.20
1135;DHT22;556;53.550;10.048;2022-10-28T02:29:43;18.30;57.20
1135;DHT22;556;53.550;10.048;2022-10-28T02:32:14;18.20;57.20
1135;DHT22;556;53.550;10.048;2022-10-28T02:34:46;18.20;57.20
1135;DHT22;556;53.550;10.048;2022-10-28T02:37:18;18.10;57.20
1135;DHT22;556;53.550;10.048;2022-10-28T02:39:51;18.00;57.20
1135;DHT22;556;53.550;10.048;2022-10-28T02:42:21;18.00;57.30
1135;DHT22;556;53.550;10.048;2022-10-28T02:44:54;17.90;57.30
1135;DHT22;556;53.550;10.048;2022-10-28T02:47:27;17.90;57.30
1135;DHT22;556;53.550;10.048;2022-10-28T02:50:01;17.90;57.40
1135;DHT22;556;53.550;10.048;2022-10-28T02:52:31;17.80;57.40
1135;DHT22;556;53.550;10.048;2022-10-28T02:55:02;17.80;57.40
1135;DHT22;556;53.550;10.048;2022-10-28T02:57:32;17.80;57.90
1135;DHT22;556;53.550;10.048;2022-10-28T03:00:02;17.70;57.40
1135;DHT22;556;53.550;10.048;2022-10-28T03:02:31;17.70;57.40
1135;DHT22;556;53.550;10.048;2022-10-28T03:05:00;17.70;57.40
1135;DHT22;556;53.550;10.048;2022-10-28T03:07:27;17.70;57.40
1135;DHT22;556;53.550;10.048;2022-10-28T03:09:54;17.70;57.40
1135;DHT22;556;53.550;10.048;2022-10-28T03:12:21;17.70;57.80
1135;DHT22;556;53.550;10.048;2022-10-28T03:14:48;17.60;57.30
1135;DHT22;556;53.550;10.048;2022-10-28T03:17:15;17.70;57.80
1135;DHT22;556;53.550;10.048;2022-10-28T03:19:42;17.80;57.40
1135;DHT22;556;53.550;10.048;2022-10-28T03:22:11;17.80;57.40
1135;DHT22;556;53.550;10.048;2022-10-28T03:24:38;17.80;57.30
1135;DHT22;556;53.550;10.048;2022-10-28T03:27:05;17.90;57.30
1135;DHT22;556;53.550;10.048;2022-10-28T03:29:32;17.90;57.70
1135;DHT22;556;53.550;10.048;2022-10-28T03:31:59;18.00;57.30
1135;DHT22;556;53.550;10.048;2022-10-28T03:34:26;18.00;57.30
1135;DHT22;556;53.550;10.048;2022-10-28T03:36:54;18.10;57.80
1135;DHT22;556;53.550;10.048;2022-10-28T03:39:22;18.10;57.40
1135;DHT22;556;53.550;10.048;2022-10-28T03:41:50;18.10;57.40
1135;DHT22;556;53.550;10.048;2022-10-28T03:44:17;18.10;57.40
1135;DHT22;556;53.550;10.048;2022-10-28T03:46:44;18.20;57.50
1135;DHT22;556;53.550;10.048;2022-10-28T03:49:11;18.20;57.50
1135;DHT22;556;53.550;10.048;2022-10-28T03:51:38;18.20;57.50
1135;DHT22;556;53.550;10.048;2022-10-28T03:54:05;18.30;57.60
1135;DHT22;556;53.550;10.048;2022-10-28T03:56:34;18.30;57.50
1135;DHT22;556;53.550;10.048;2022-10-28T03:59:01;18.30;57.50
1135;DHT22;556;53.550;10.048;2022-10-28T04:01:28;18.30;58.00
1135;DHT22;556;53.550;10.048;2022-10-28T04:03:55;18.40;57.50
1135;DHT22;556;53.550;10.048;2022-10-28T04:06:22;18.40;57.60
1135;DHT22;556;53.550;10.048;2022-10-28T04:08:49;18.40;57.50
1135;DHT22;556;53.550;10.048;2022-10-28T04:11:16;18.40;57.50
1135;DHT22;556;53.550;10.048;2022-10-28T04:13:44;18.40;57.50
1135;DHT22;556;53.550;10.048;2022-10-28T04:16:11;18.40;58.00
1135;DHT22;556;53.550;10.048;2022-10-28T04:18:39;18.40;57.50
1135;DHT22;556;53.550;10.048;2022-10-28T04:21:06;18.40;57.40
1135;DHT22;556;53.550;10.048;2022-10-28T04:23:33;18.40;57.40
1135;DHT22;556;53.550;10.048;2022-10-28T04:26:00;18.40;57.80
1135;DHT22;556;53.550;10.048;2022-10-28T04:28:27;18.40;57.90
1135;DHT22;556;53.550;10.048;2022-10-28T04:30:56;18.30;57.50
1135;DHT22;556;53.550;10.048;2022-10-28T04:33:23;18.20;57.40
1135;DHT22;556;53.550;10.048;2022-10-28T04:35:50;18.20;57.90
1135;DHT22;556;53.550;10.048;2022-10-28T04:38:17;18.20;57.50
1135;DHT22;556;53.550;10.048;2022-10-28T04:40:46;18.20;57.50
1135;DHT22;556;53.550;10.048;2022-10-28T04:43:13;18.20;57.50
1135;DHT22;556;53.550;10.048;2022-10-28T04:45:40;18.30;57.50
1135;DHT22;556;53.550;10.048;2022-10-28T04:48:09;18.20;57.50
1135;DHT22;556;53.550;10.048;2022-10-28T04:50:36;18.20;57.50
1135;DHT22;556;53.550;10.048;2022-10-28T04:53:09;18.20;57.50
1135;DHT22;556;53.550;10.048;2022-10-28T04:55:36;18.10;57.50
1135;DHT22;556;53.550;10.048;2022-10-28T04:58:03;18.10;57.50
1135;DHT22;556;53.550;10.048;2022-10-28T05:00:30;18.10;57.50
1135;DHT22;556;53.550;10.048;2022-10-28T05:03:00;18.00;57.50
1135;DHT22;556;53.550;10.048;2022-10-28T05:05:29;18.00;57.50
1135;DHT22;556;53.550;10.048;2022-10-28T05:07:56;17.90;57.50
1135;DHT22;556;53.550;10.048;2022-10-28T05:10:23;17.90;57.50
1135;DHT22;556;53.550;10.048;2022-10-28T05:12:50;17.90;57.50
1135;DHT22;556;53.550;10.048;2022-10-28T05:15:17;17.90;58.00
1135;DHT22;556;53.550;10.048;2022-10-28T05:17:45;18.00;57.60
1135;DHT22;556;53.550;10.048;2022-10-28T05:20:14;17.90;57.40
1135;DHT22;556;53.550;10.048;2022-10-28T05:22:48;17.90;57.40
1135;DHT22;556;53.550;10.048;2022-10-28T05:25:17;18.00;57.50
1135;DHT22;556;53.550;10.048;2022-10-28T05:27:45;17.90;57.40
1135;DHT22;556;53.550;10.048;2022-10-28T05:30:12;17.90;57.40
1135;DHT22;556;53.550;10.048;2022-10-28T05:32:40;17.90;57.50
1135;DHT22;556;53.550;10.048;2022-10-28T05:35:08;17.80;57.50
1135;DHT22;556;53.550;10.048;2022-10-28T05:37:35;17.80;57.50
1135;DHT22;556;53.550;10.048;2022-10-28T05:40:05;17.80;57.50
1135;DHT22;556;53.550;10.048;2022-10-28T05:42:32;17.70;57.50
1135;DHT22;556;53.550;10.048;2022-10-28T05:44:59;17.70;57.50
1135;DHT22;556;53.550;10.048;2022-10-28T05:47:26;17.60;57.50
1135;DHT22;556;53.550;10.048;2022-10-28T05:52:20;17.60;57.50
1135;DHT22;556;53.550;10.048;2022-10-28T05:54:47;17.60;57.60
1135;DHT22;556;53.550;10.048;2022-10-28T05:57:16;17.50;57.50
1135;DHT22;556;53.550;10.048;2022-10-28T05:59:43;17.50;58.00
1135;DHT22;556;53.550;10.048;2022-10-28T06:02:12;17.40;57.60
1135;DHT22;556;53.550;10.048;2022-10-28T06:04:40;17.50;57.60
1135;DHT22;556;53.550;10.048;2022-10-28T06:07:07;17.40;57.50
1135;DHT22;556;53.550;10.048;2022-10-28T06:09:35;17.40;57.60
1135;DHT22;556;53.550;10.048;2022-10-28T06:12:04;17.40;57.60
1135;DHT22;556;53.550;10.048;2022-10-28T06:17:01;17.40;57.70
1135;DHT22;556;53.550;10.048;2022-10-28T06:19:29;17.40;58.10
1135;DHT22;556;53.550;10.048;2022-10-28T06:21:56;17.40;57.70
1135;DHT22;556;53.550;10.048;2022-10-28T06:24:23;17.30;57.60
1135;DHT22;556;53.550;10.048;2022-10-28T06:26:50;17.30;57.70
1135;DHT22;556;53.550;10.048;2022-10-28T06:29:17;17.30;57.60
1135;DHT22;556;53.550;10.048;2022-10-28T06:31:46;17.40;57.70
1135;DHT22;556;53.550;10.048;2022-10-28T06:34:13;17.40;57.60
1135;DHT22;556;53.550;10.048;2022-10-28T06:38:44;17.50;57.70
1135;DHT22;556;53.550;10.048;2022-10-28T06:41:12;17.50;57.60
1135;DHT22;556;53.550;10.048;2022-10-28T06:43:39;17.50;57.60
1135;DHT22;556;53.550;10.048;2022-10-28T06:46:06;17.60;57.70
1135;DHT22;556;53.550;10.048;2022-10-28T06:48:33;17.60;57.70
1135;DHT22;556;53.550;10.048;2022-10-28T06:51:00;17.70;57.70
1135;DHT22;556;53.550;10.048;2022-10-28T06:53:27;17.70;57.70
1135;DHT22;556;53.550;10.048;2022-10-28T06:55:57;17.70;57.70
1135;DHT22;556;53.550;10.048;2022-10-28T06:58:25;17.70;57.70
1135;DHT22;556;53.550;10.048;2022-10-28T07:00:52;17.90;57.70
1135;DHT22;556;53.550;10.048;2022-10-28T07:03:20;17.90;57.70
1135;DHT22;556;53.550;10.048;2022-10-28T07:05:48;18.00;57.70
1135;DHT22;556;53.550;10.048;2022-10-28T07:08:16;18.10;57.70
1135;DHT22;556;53.550;10.048;2022-10-28T07:10:43;18.10;57.70
1135;DHT22;556;53.550;10.048;2022-10-28T07:13:11;18.10;58.10
1135;DHT22;556;53.550;10.048;2022-10-28T07:15:39;18.20;57.70
1135;DHT22;556;53.550;10.048;2022-10-28T07:18:06;18.30;57.70
1135;DHT22;556;53.550;10.048;2022-10-28T07:20:33;18.30;57.70
1135;DHT22;556;53.550;10.048;2022-10-28T07:23:01;18.40;57.70
1135;DHT22;556;53.550;10.048;2022-10-28T07:25:29;18.40;57.80
1135;DHT22;556;53.550;10.048;2022-10-28T07:27:56;18.50;58.30
1135;DHT22;556;53.550;10.048;2022-10-28T07:30:25;18.60;57.80
1135;DHT22;556;53.550;10.048;2022-10-28T07:32:52;18.60;58.20
1135;DHT22;556;53.550;10.048;2022-10-28T07:35:20;18.70;57.90
1135;DHT22;556;53.550;10.048;2022-10-28T07:37:47;18.80;57.90
1135;DHT22;556;53.550;10.048;2022-10-28T07:40:14;18.80;57.80
1135;DHT22;556;53.550;10.048;2022-10-28T07:42:42;19.00;57.80
1135;DHT22;556;53.550;10.048;2022-10-28T07:45:09;19.00;57.60
1135;DHT22;556;53.550;10.048;2022-10-28T07:47:38;19.10;57.70
1135;DHT22;556;53.550;10.048;2022-10-28T07:50:06;19.10;57.60
1135;DHT22;556;53.550;10.048;2022-10-28T07:52:34;19.20;57.70
1135;DHT22;556;53.550;10.048;2022-10-28T07:55:02;19.30;57.70
1135;DHT22;556;53.550;10.048;2022-10-28T07:57:30;19.40;57.70
1135;DHT22;556;53.550;10.048;2022-10-28T07:59:57;19.40;57.60
1135;DHT22;556;53.550;10.048;2022-10-28T08:02:24;19.50;57.60
1135;DHT22;556;53.550;10.048;2022-10-28T08:04:53;19.50;57.60
1135;DHT22;556;53.550;10.048;2022-10-28T08:07:21;19.60;57.60
1135;DHT22;556;53.550;10.048;2022-10-28T08:09:48;19.60;57.60
1135;DHT22;556;53.550;10.048;2022-10-28T08:12:18;19.60;57.50
1135;DHT22;556;53.550;10.048;2022-10-28T08:14:45;19.70;57.50
1135;DHT22;556;53.550;10.048;2022-10-28T08:17:12;19.80;57.50
1135;DHT22;556;53.550;10.048;2022-10-28T08:19:39;19.90;57.40
1135;DHT22;556;53.550;10.048;2022-10-28T08:22:08;19.90;57.80
1135;DHT22;556;53.550;10.048;2022-10-28T08:24:35;20.00;57.40
1135;DHT22;556;53.550;10.048;2022-10-28T08:27:03;20.10;57.40
1135;DHT22;556;53.550;10.048;2022-10-28T08:29:31;20.10;57.40
1135;DHT22;556;53.550;10.048;2022-10-28T08:31:58;20.10;57.40
1135;DHT22;556;53.550;10.048;2022-10-28T08:34:25;20.10;57.90
1135;DHT22;556;53.550;10.048;2022-10-28T08:36:54;20.20;57.40
1135;DHT22;556;53.550;10.048;2022-10-28T08:39:22;20.30;57.40
1135;DHT22;556;53.550;10.048;2022-10-28T08:41:54;20.30;57.40
1135;DHT22;556;53.550;10.048;2022-10-28T08:44:41;20.40;57.30
1135;DHT22;556;53.550;10.048;2022-10-28T08:47:19;20.40;57.20
1135;DHT22;556;53.550;10.048;2022-10-28T08:49:54;20.40;57.20
1135;DHT22;556;53.550;10.048;2022-10-28T08:52:29;20.60;57.20
1135;DHT22;556;53.550;10.048;2022-10-28T08:55:04;20.60;57.20
1135;DHT22;556;53.550;10.048;2022-10-28T08:57:36;20.70;57.10
1135;DHT22;556;53.550;10.048;2022-10-28T09:00:06;20.70;57.10
1135;DHT22;556;53.550;10.048;2022-10-28T09:02:46;20.80;57.10
1135;DHT22;556;53.550;10.048;2022-10-28T09:05:19;20.70;57.50
1135;DHT22;556;53.550;10.048;2022-10-28T09:07:47;20.80;57.60
1135;DHT22;556;53.550;10.048;2022-10-28T09:10:19;20.90;57.10
1135;DHT22;556;53.550;10.048;2022-10-28T09:12:51;20.90;56.90
1135;DHT22;556;53.550;10.048;2022-10-28T09:15:27;21.00;56.90
1135;DHT22;556;53.550;10.048;2022-10-28T09:18:07;21.00;56.90
1135;DHT22;556;53.550;10.048;2022-10-28T09:20:48;21.10;56.90
1135;DHT22;556;53.550;10.048;2022-10-28T09:23:20;21.20;56.70
1135;DHT22;556;53.550;10.048;2022-10-28T09:25:58;21.20;56.70
1135;DHT22;556;53.550;10.048;2022-10-28T09:28:45;21.20;56.70
1135;DHT22;556;53.550;10.048;2022-10-28T09:31:23;21.30;56.70
1135;DHT22;556;53.550;10.048;2022-10-28T09:36:32;21.40;56.60
1135;DHT22;556;53.550;10.048;2022-10-28T09:39:02;21.40;56.50
1135;DHT22;556;53.550;10.048;2022-10-28T09:41:35;21.50;56.50
1135;DHT22;556;53.550;10.048;2022-10-28T09:44:07;21.50;56.50
1135;DHT22;556;53.550;10.048;2022-10-28T09:46:45;21.60;56.50
1135;DHT22;556;53.550;10.048;2022-10-28T09:49:16;21.70;56.50
1135;DHT22;556;53.550;10.048;2022-10-28T09:51:48;21.80;56.40
1135;DHT22;556;53.550;10.048;2022-10-28T09:54:29;21.90;56.30
1135;DHT22;556;53.550;10.048;2022-10-28T09:56:59;22.00;56.30
1135;DHT22;556;53.550;10.048;2022-10-28T09:59:27;22.00;56.20
1135;DHT22;556;53.550;10.048;2022-10-28T10:01:55;22.10;56.20
1135;DHT22;556;53.550;10.048;2022-10-28T10:04:23;22.20;56.10
1135;DHT22;556;53.550;10.048;2022-10-28T10:06:53;22.30;56.60
1135;DHT22;556;53.550;10.048;2022-10-28T10:11:53;22.50;55.90
1135;DHT22;556;53.550;10.048;2022-10-28T10:14:25;22.50;55.80
1135;DHT22;556;53.550;10.048;2022-10-28T10:16:56;22.70;55.80
1135;DHT22;556;53.550;10.048;2022-10-28T10:19:25;22.70;55.70
1135;DHT22;556;53.550;10.048;2022-10-28T10:21:53;22.80;55.60
1135;DHT22;556;53.550;10.048;2022-10-28T10:24:27;22.90;55.60
1135;DHT22;556;53.550;10.048;2022-10-28T10:27:01;22.90;55.60
1135;DHT22;556;53.550;10.048;2022-10-28T10:29:30;23.00;55.50
1135;DHT22;556;53.550;10.048;2022-10-28T10:32:07;23.30;55.40
1135;DHT22;556;53.550;10.048;2022-10-28T10:34:42;23.40;55.30
1135;DHT22;556;53.550;10.048;2022-10-28T10:37:17;23.50;55.20
1135;DHT22;556;53.550;10.048;2022-10-28T10:39:44;23.60;55.70
1135;DHT22;556;53.550;10.048;2022-10-28T10:42:23;23.60;55.10
1135;DHT22;556;53.550;10.048;2022-10-28T10:45:00;23.80;55.10
1135;DHT22;556;53.550;10.048;2022-10-28T10:47:28;23.90;55.00
1135;DHT22;556;53.550;10.048;2022-10-28T10:50:20;24.00;54.90
1135;DHT22;556;53.550;10.048;2022-10-28T10:52:50;24.10;54.90
1135;DHT22;556;53.550;10.048;2022-10-28T10:55:26;24.30;54.80
1135;DHT22;556;53.550;10.048;2022-10-28T11:00:30;24.40;54.60
1135;DHT22;556;53.550;10.048;2022-10-28T11:02:58;24.50;54.60
1135;DHT22;556;53.550;10.048;2022-10-28T11:05:25;24.60;54.50
1135;DHT22;556;53.550;10.048;2022-10-28T11:07:53;24.70;54.40
1135;DHT22;556;53.550;10.048;2022-10-28T11:10:23;24.90;54.30
1135;DHT22;556;53.550;10.048;2022-10-28T11:12:52;25.00;54.20
1135;DHT22;556;53.550;10.048;2022-10-28T11:15:23;25.00;54.00
1135;DHT22;556;53.550;10.048;2022-10-28T11:17:57;25.20;53.90
1135;DHT22;556;53.550;10.048;2022-10-28T11:20:27;25.20;53.60
1135;DHT22;556;53.550;10.048;2022-10-28T11:23:16;25.40;53.50
1135;DHT22;556;53.550;10.048;2022-10-28T11:25:49;25.50;53.10
1135;DHT22;556;53.550;10.048;2022-10-28T11:28:37;25.70;52.80
1135;DHT22;556;53.550;10.048;2022-10-28T11:31:22;25.70;53.00
1135;DHT22;556;53.550;10.048;2022-10-28T11:34:15;25.90;52.40
1135;DHT22;556;53.550;10.048;2022-10-28T11:36:51;26.00;52.30
1135;DHT22;556;53.550;10.048;2022-10-28T11:39:24;26.00;52.10
1135;DHT22;556;53.550;10.048;2022-10-28T11:41:59;26.00;52.40
1135;DHT22;556;53.550;10.048;2022-10-28T11:44:43;26.10;52.40
1135;DHT22;556;53.550;10.048;2022-10-28T11:47:37;26.10;51.60
1135;DHT22;556;53.550;10.048;2022-10-28T11:50:27;26.20;52.10
1135;DHT22;556;53.550;10.048;2022-10-28T11:53:13;26.20;51.80
1135;DHT22;556;53.550;10.048;2022-10-28T11:55:48;26.30;51.80
1135;DHT22;556;53.550;10.048;2022-10-28T11:58:26;26.20;51.70
1135;DHT22;556;53.550;10.048;2022-10-28T12:01:03;26.20;51.50
1135;DHT22;556;53.550;10.048;2022-10-28T12:04:04;26.30;51.50
1135;DHT22;556;53.550;10.048;2022-10-28T12:06:51;26.30;51.30
1135;DHT22;556;53.550;10.048;2022-10-28T12:09:25;26.30;51.20
1135;DHT22;556;53.550;10.048;2022-10-28T12:12:04;26.40;51.20
1135;DHT22;556;53.550;10.048;2022-10-28T12:14:39;26.50;51.00
1135;DHT22;556;53.550;10.048;2022-10-28T12:17:14;26.60;50.80
1135;DHT22;556;53.550;10.048;2022-10-28T12:19:45;26.70;50.10
1135;DHT22;556;53.550;10.048;2022-10-28T12:22:24;26.60;50.60
1135;DHT22;556;53.550;10.048;2022-10-28T12:24:53;26.70;50.50
1135;DHT22;556;53.550;10.048;2022-10-28T12:27:23;26.70;50.40
1135;DHT22;556;53.550;10.048;2022-10-28T12:29:54;26.70;50.30
1135;DHT22;556;53.550;10.048;2022-10-28T12:32:27;26.60;50.40
1135;DHT22;556;53.550;10.048;2022-10-28T12:35:00;26.60;50.30
1135;DHT22;556;53.550;10.048;2022-10-28T12:37:35;26.50;50.20
1135;DHT22;556;53.550;10.048;2022-10-28T12:40:06;26.50;50.20
1135;DHT22;556;53.550;10.048;2022-10-28T12:42:41;26.40;50.20
1135;DHT22;556;53.550;10.048;2022-10-28T12:45:13;26.40;50.20
1135;DHT22;556;53.550;10.048;2022-10-28T12:47:44;26.40;50.10
1135;DHT22;556;53.550;10.048;2022-10-28T12:50:21;26.60;49.50
1135;DHT22;556;53.550;10.048;2022-10-28T12:52:55;26.70;49.40
1135;DHT22;556;53.550;10.048;2022-10-28T12:55:29;26.80;49.90
1135;DHT22;556;53.550;10.048;2022-10-28T12:58:00;27.00;49.30
1135;DHT22;556;53.550;10.048;2022-10-28T13:00:30;27.00;49.10
1135;DHT22;556;53.550;10.048;2022-10-28T13:03:01;27.20;49.00
1135;DHT22;556;53.550;10.048;2022-10-28T13:05:33;27.30;49.50
1135;DHT22;556;53.550;10.048;2022-10-28T13:11:30;27.90;49.40
1135;DHT22;556;53.550;10.048;2022-10-28T13:14:04;28.40;49.30
1135;DHT22;556;53.550;10.048;2022-10-28T13:19:31;29.70;48.10
1135;DHT22;556;53.550;10.048;2022-10-28T13:22:26;29.80;48.00
1135;DHT22;556;53.550;10.048;2022-10-28T13:25:07;29.90;47.80
1135;DHT22;556;53.550;10.048;2022-10-28T13:27:40;29.80;47.50
1135;DHT22;556;53.550;10.048;2022-10-28T13:30:15;29.70;47.30
1135;DHT22;556;53.550;10.048;2022-10-28T13:32:43;29.40;47.40
1135;DHT22;556;53.550;10.048;2022-10-28T13:35:13;29.20;47.30
1135;DHT22;556;53.550;10.048;2022-10-28T13:37:45;29.00;47.20
1135;DHT22;556;53.550;10.048;2022-10-28T13:40:23;28.90;47.70
1135;DHT22;556;53.550;10.048;2022-10-28T13:43:17;28.70;47.60
1135;DHT22;556;53.550;10.048;2022-10-28T13:45:47;28.30;47.10
1135;DHT22;556;53.550;10.048;2022-10-28T13:48:31;28.00;47.30
1135;DHT22;556;53.550;10.048;2022-10-28T13:51:29;27.80;47.20
1135;DHT22;556;53.550;10.048;2022-10-28T13:53:56;27.70;47.40
1135;DHT22;556;53.550;10.048;2022-10-28T13:56:31;27.50;47.30
1135;DHT22;556;53.550;10.048;2022-10-28T13:59:04;27.30;47.30
1135;DHT22;556;53.550;10.048;2022-10-28T14:01:53;27.20;47.40
1135;DHT22;556;53.550;10.048;2022-10-28T14:04:26;27.00;47.40
1135;DHT22;556;53.550;10.048;2022-10-28T14:07:19;26.90;47.40
1135;DHT22;556;53.550;10.048;2022-10-28T14:12:27;26.60;47.40
1135;DHT22;556;53.550;10.048;2022-10-28T14:14:58;26.50;47.40
1135;DHT22;556;53.550;10.048;2022-10-28T14:17:32;26.50;47.40
1135;DHT22;556;53.550;10.048;2022-10-28T14:20:00;26.30;47.50
1135;DHT22;556;53.550;10.048;2022-10-28T14:22:31;26.20;47.50
1135;DHT22;556;53.550;10.048;2022-10-28T14:24:58;26.10;47.50
1135;DHT22;556;53.550;10.048;2022-10-28T14:27:45;26.00;47.70
1135;DHT22;556;53.550;10.048;2022-10-28T14:30:20;25.80;47.60
1135;DHT22;556;53.550;10.048;2022-10-28T14:33:01;25.70;47.70
1135;DHT22;556;53.550;10.048;2022-10-28T14:35:38;25.60;47.80
1135;DHT22;556;53.550;10.048;2022-10-28T14:38:31;25.60;47.90
1135;DHT22;556;53.550;10.048;2022-10-28T14:41:17;25.50;47.90
1135;DHT22;556;53.550;10.048;2022-10-28T14:43:56;25.40;48.00
1135;DHT22;556;53.550;10.048;2022-10-28T14:46:48;25.40;48.00
1135;DHT22;556;53.550;10.048;2022-10-28T14:49:21;25.40;48.50
1135;DHT22;556;53.550;10.048;2022-10-28T14:51:50;25.20;48.10
1135;DHT22;556;53.550;10.048;2022-10-28T14:54:27;25.20;48.10
1135;DHT22;556;53.550;10.048;2022-10-28T14:56:55;25.10;48.20
1135;DHT22;556;53.550;10.048;2022-10-28T14:59:26;25.00;48.30
1135;DHT22;556;53.550;10.048;2022-10-28T15:02:01;25.00;48.50
1135;DHT22;556;53.550;10.048;2022-10-28T15:04:30;24.90;48.50
1135;DHT22;556;53.550;10.048;2022-10-28T15:06:57;24.80;48.50
1135;DHT22;556;53.550;10.048;2022-10-28T15:09:29;24.70;48.60
1135;DHT22;556;53.550;10.048;2022-10-28T15:12:00;24.70;48.70
1135;DHT22;556;53.550;10.048;2022-10-28T15:14:31;24.60;48.70
1135;DHT22;556;53.550;10.048;2022-10-28T15:17:09;24.50;48.80
1135;DHT22;556;53.550;10.048;2022-10-28T15:19:37;24.50;48.90
1135;DHT22;556;53.550;10.048;2022-10-28T15:22:10;24.40;49.00
1135;DHT22;556;53.550;10.048;2022-10-28T15:24:38;24.30;49.10
1135;DHT22;556;53.550;10.048;2022-10-28T15:27:07;24.10;49.10
1135;DHT22;556;53.550;10.048;2022-10-28T15:29:37;24.10;49.20
1135;DHT22;556;53.550;10.048;2022-10-28T15:32:23;24.00;49.30
1135;DHT22;556;53.550;10.048;2022-10-28T15:34:50;23.90;49.30
1135;DHT22;556;53.550;10.048;2022-10-28T15:37:19;23.90;49.40
1135;DHT22;556;53.550;10.048;2022-10-28T15:39:48;23.80;49.50
1135;DHT22;556;53.550;10.048;2022-10-28T15:42:30;23.70;49.60
1135;DHT22;556;53.550;10.048;2022-10-28T15:45:04;23.60;50.00
1135;DHT22;556;53.550;10.048;2022-10-28T15:47:33;23.50;49.70
1135;DHT22;556;53.550;10.048;2022-10-28T15:50:16;23.40;49.80
1135;DHT22;556;53.550;10.048;2022-10-28T15:55:30;23.20;49.90
1135;DHT22;556;53.550;10.048;2022-10-28T15:58:00;23.20;50.00
1135;DHT22;556;53.550;10.048;2022-10-28T16:00:31;23.10;50.00
1135;DHT22;556;53.550;10.048;2022-10-28T16:03:00;23.10;50.10
1135;DHT22;556;53.550;10.048;2022-10-28T16:05:48;23.00;50.10
1135;DHT22;556;53.550;10.048;2022-10-28T16:08:18;23.00;50.20
1135;DHT22;556;53.550;10.048;2022-10-28T16:10:49;22.90;50.30
1135;DHT22;556;53.550;10.048;2022-10-28T16:13:20;22.90;50.40
1135;DHT22;556;53.550;10.048;2022-10-28T16:15:53;22.80;50.40
1135;DHT22;556;53.550;10.048;2022-10-28T16:18:21;22.80;50.40
1135;DHT22;556;53.550;10.048;2022-10-28T16:20:48;22.70;50.40
1135;DHT22;556;53.550;10.048;2022-10-28T16:23:18;22.80;50.60
1135;DHT22;556;53.550;10.048;2022-10-28T16:25:45;22.70;50.60
1135;DHT22;556;53.550;10.048;2022-10-28T16:28:19;22.70;50.60
1135;DHT22;556;53.550;10.048;2022-10-28T16:30:51;22.70;50.70
1135;DHT22;556;53.550;10.048;2022-10-28T16:33:23;22.70;50.80
1135;DHT22;556;53.550;10.048;2022-10-28T16:35:52;22.70;51.30
1135;DHT22;556;53.550;10.048;2022-10-28T16:38:20;22.60;50.80
1135;DHT22;556;53.550;10.048;2022-10-28T16:40:47;22.70;51.40
1135;DHT22;556;53.550;10.048;2022-10-28T16:43:16;22.60;51.00
1135;DHT22;556;53.550;10.048;2022-10-28T16:45:44;22.60;51.10
1135;DHT22;556;53.550;10.048;2022-10-28T16:48:14;22.50;51.00
1135;DHT22;556;53.550;10.048;2022-10-28T16:50:43;22.60;51.20
1135;DHT22;556;53.550;10.048;2022-10-28T16:53:11;22.50;51.60
1135;DHT22;556;53.550;10.048;2022-10-28T16:55:39;22.50;51.20
1135;DHT22;556;53.550;10.048;2022-10-28T16:58:07;22.40;51.30
1135;DHT22;556;53.550;10.048;2022-10-28T17:03:03;22.40;51.50
1135;DHT22;556;53.550;10.048;2022-10-28T17:05:34;22.30;51.90
1135;DHT22;556;53.550;10.048;2022-10-28T17:08:01;22.20;52.00
1135;DHT22;556;53.550;10.048;2022-10-28T17:10:29;22.10;51.70
1135;DHT22;556;53.550;10.048;2022-10-28T17:12:56;22.10;51.80
1135;DHT22;556;53.550;10.048;2022-10-28T17:15:23;22.10;52.20